sensor_id;sensor_type;location;lat;lon;timestamp;P1;durP1;ratioP1;P2;durP2;ratioP2
17993;SDS011;9122;48.406;9.984;2022-09-09T00:00:31;4.17;;;2.77;;
17993;SDS011;9122;48.406;9.984;2022-09-09T00:03:27;5.63;;;2.80;;
17993;SDS011;9122;48.406;9.984;2022-09-09T00:06:45;4.37;;;2.50;;
17993;SDS011;9122;48.406;9.984;2022-09-09T00:09:48;2.50;;;2.30;;
17993;SDS011;9122;48.406;9.984;2022-09-09T00:12:42;4.50;;;2.57;;
17993;SDS011;9122;48.406;9.984;2022-09-09T00:19:19;3.57;;;2.63;;
17993;SDS011;9122;48.406;9.984;2022-09-09T00:22:14;3.67;;;2.57;;
17993;SDS011;9122;48.406;9.984;2022-09-09T00:25:12;3.80;;;2.73;;
17993;SDS011;9122;48.406;9.984;2022-09-09T00:28:01;5.40;;;3.17;;
17993;SDS011;9122;48.406;9.984;2022-09-09T00:30:45;3.77;;;2.70;;
17993;SDS011;9122;48.406;9.984;2022-09-09T00:33:32;3.37;;;2.87;;
17993;SDS011;9122;48.406;9.984;2022-09-09T00:36:21;8.73;;;3.10;;
17993;SDS011;9122;48.406;9.984;2022-09-09T00:39:42;2.53;;;2.33;;
17993;SDS011;9122;48.406;9.984;2022-09-09T00:42:46;3.70;;;2.33;;
17993;SDS011;9122;48.406;9.984;2022-09-09T00:45:52;4.50;;;2.97;;
17993;SDS011;9122;48.406;9.984;2022-09-09T00:55:17;3.20;;;2.60;;
17993;SDS011;9122;48.406;9.984;2022-09-09T00:58:06;2.50;;;2.30;;
17993;SDS011;9122;48.406;9.984;2022-09-09T01:01:03;4.33;;;2.20;;
17993;SDS011;9122;48.406;9.984;2022-09-09T01:03:53;4.43;;;2.17;;
17993;SDS011;9122;48.406;9.984;2022-09-09T01:06:39;2.77;;;2.00;;
17993;SDS011;9122;48.406;9.984;2022-09-09T01:09:29;3.63;;;2.20;;
17993;SDS011;9122;48.406;9.984;2022-09-09T01:15:12;2.50;;;2.30;;
17993;SDS011;9122;48.406;9.984;2022-09-09T01:18:08;2.80;;;2.10;;
17993;SDS011;9122;48.406;9.984;2022-09-09T01:24:14;3.20;;;2.30;;
17993;SDS011;9122;48.406;9.984;2022-09-09T01:27:11;5.43;;;2.90;;
17993;SDS011;9122;48.406;9.984;2022-09-09T01:29:57;3.77;;;2.30;;
17993;SDS011;9122;48.406;9.984;2022-09-09T01:38:15;3.23;;;2.60;;
17993;SDS011;9122;48.406;9.984;2022-09-09T01:41:01;2.57;;;2.37;;
17993;SDS011;9122;48.406;9.984;2022-09-09T01:43:46;4.47;;;1.97;;
17993;SDS011;9122;48.406;9.984;2022-09-09T01:46:31;5.97;;;1.83;;
17993;SDS011;9122;48.406;9.984;2022-09-09T01:49:15;4.53;;;2.23;;
17993;SDS011;9122;48.406;9.984;2022-09-09T01:52:00;6.33;;;2.33;;
17993;SDS011;9122;48.406;9.984;2022-09-09T01:54:45;3.03;;;2.20;;
17993;SDS011;9122;48.406;9.984;2022-09-09T01:57:38;3.33;;;1.90;;
17993;SDS011;9122;48.406;9.984;2022-09-09T02:03:52;8.07;;;2.17;;
17993;SDS011;9122;48.406;9.984;2022-09-09T02:06:39;3.50;;;1.97;;
17993;SDS011;9122;48.406;9.984;2022-09-09T02:09:24;4.53;;;2.17;;
17993;SDS011;9122;48.406;9.984;2022-09-09T02:12:11;2.17;;;2.07;;
17993;SDS011;9122;48.406;9.984;2022-09-09T02:15:03;3.77;;;1.60;;
17993;SDS011;9122;48.406;9.984;2022-09-09T02:17:54;3.80;;;2.00;;
17993;SDS011;9122;48.406;9.984;2022-09-09T02:20:42;7.17;;;2.30;;
17993;SDS011;9122;48.406;9.984;2022-09-09T02:23:28;4.47;;;2.77;;
17993;SDS011;9122;48.406;9.984;2022-09-09T02:26:14;2.53;;;2.13;;
17993;SDS011;9122;48.406;9.984;2022-09-09T02:29:04;4.33;;;2.33;;
17993;SDS011;9122;48.406;9.984;2022-09-09T02:31:53;3.57;;;1.97;;
17993;SDS011;9122;48.406;9.984;2022-09-09T02:34:45;1.90;;;1.80;;
17993;SDS011;9122;48.406;9.984;2022-09-09T02:37:38;1.57;;;1.37;;
17993;SDS011;9122;48.406;9.984;2022-09-09T02:40:23;2.30;;;1.60;;
17993;SDS011;9122;48.406;9.984;2022-09-09T02:43:07;2.87;;;1.87;;
17993;SDS011;9122;48.406;9.984;2022-09-09T02:46:08;2.80;;;1.70;;
17993;SDS011;9122;48.406;9.984;2022-09-09T02:52:23;1.80;;;1.40;;
17993;SDS011;9122;48.406;9.984;2022-09-09T02:55:18;4.83;;;1.73;;
17993;SDS011;9122;48.406;9.984;2022-09-09T02:58:17;2.50;;;1.77;;
17993;SDS011;9122;48.406;9.984;2022-09-09T03:01:02;1.90;;;1.47;;
17993;SDS011;9122;48.406;9.984;2022-09-09T03:03:46;2.27;;;2.07;;
17993;SDS011;9122;48.406;9.984;2022-09-09T03:06:31;2.83;;;2.03;;
17993;SDS011;9122;48.406;9.984;2022-09-09T03:09:16;1.77;;;1.60;;
17993;SDS011;9122;48.406;9.984;2022-09-09T03:12:00;1.60;;;1.50;;
17993;SDS011;9122;48.406;9.984;2022-09-09T03:14:45;2.20;;;1.50;;
17993;SDS011;9122;48.406;9.984;2022-09-09T03:17:31;2.17;;;1.63;;
17993;SDS011;9122;48.406;9.984;2022-09-09T03:20:16;2.67;;;1.60;;
17993;SDS011;9122;48.406;9.984;2022-09-09T03:23:00;2.73;;;2.07;;
17993;SDS011;9122;48.406;9.984;2022-09-09T03:25:46;1.67;;;1.57;;
17993;SDS011;9122;48.406;9.984;2022-09-09T03:28:32;2.90;;;2.20;;
17993;SDS011;9122;48.406;9.984;2022-09-09T03:31:17;2.43;;;2.23;;
17993;SDS011;9122;48.406;9.984;2022-09-09T03:34:02;2.87;;;2.13;;
17993;SDS011;9122;48.406;9.984;2022-09-09T03:36:46;3.67;;;2.50;;
17993;SDS011;9122;48.406;9.984;2022-09-09T03:39:32;3.77;;;2.20;;
17993;SDS011;9122;48.406;9.984;2022-09-09T03:42:16;8.73;;;2.27;;
17993;SDS011;9122;48.406;9.984;2022-09-09T03:45:06;3.17;;;1.83;;
17993;SDS011;9122;48.406;9.984;2022-09-09T03:47:52;3.13;;;2.10;;
17993;SDS011;9122;48.406;9.984;2022-09-09T03:50:37;6.07;;;2.33;;
17993;SDS011;9122;48.406;9.984;2022-09-09T03:53:22;3.07;;;2.10;;
17993;SDS011;9122;48.406;9.984;2022-09-09T03:56:08;2.13;;;2.00;;
17993;SDS011;9122;48.406;9.984;2022-09-09T03:58:53;2.10;;;1.77;;
17993;SDS011;9122;48.406;9.984;2022-09-09T04:01:37;1.70;;;1.60;;
17993;SDS011;9122;48.406;9.984;2022-09-09T04:04:23;4.07;;;1.93;;
17993;SDS011;9122;48.406;9.984;2022-09-09T04:07:17;2.10;;;1.90;;
17993;SDS011;9122;48.406;9.984;2022-09-09T04:10:02;2.63;;;2.30;;
17993;SDS011;9122;48.406;9.984;2022-09-09T04:12:46;2.60;;;2.10;;
17993;SDS011;9122;48.406;9.984;2022-09-09T04:15:31;3.30;;;2.20;;
17993;SDS011;9122;48.406;9.984;2022-09-09T04:18:16;3.33;;;1.80;;
17993;SDS011;9122;48.406;9.984;2022-09-09T04:21:00;2.93;;;1.93;;
17993;SDS011;9122;48.406;9.984;2022-09-09T04:23:45;4.67;;;2.13;;
17993;SDS011;9122;48.406;9.984;2022-09-09T04:26:29;2.13;;;1.97;;
17993;SDS011;9122;48.406;9.984;2022-09-09T04:29:14;2.20;;;1.97;;
17993;SDS011;9122;48.406;9.984;2022-09-09T04:32:01;8.17;;;2.43;;
17993;SDS011;9122;48.406;9.984;2022-09-09T04:34:46;1.60;;;1.50;;
17993;SDS011;9122;48.406;9.984;2022-09-09T04:37:31;3.90;;;1.90;;
17993;SDS011;9122;48.406;9.984;2022-09-09T04:40:16;3.37;;;1.67;;
17993;SDS011;9122;48.406;9.984;2022-09-09T04:43:01;3.37;;;1.70;;
17993;SDS011;9122;48.406;9.984;2022-09-09T04:45:50;2.20;;;2.00;;
17993;SDS011;9122;48.406;9.984;2022-09-09T04:48:35;1.60;;;1.50;;
17993;SDS011;9122;48.406;9.984;2022-09-09T04:51:19;2.43;;;1.60;;
17993;SDS011;9122;48.406;9.984;2022-09-09T04:54:03;3.33;;;1.90;;
17993;SDS011;9122;48.406;9.984;2022-09-09T04:56:53;3.07;;;1.70;;
17993;SDS011;9122;48.406;9.984;2022-09-09T04:59:38;3.27;;;1.83;;
17993;SDS011;9122;48.406;9.984;2022-09-09T05:02:23;2.47;;;1.53;;
17993;SDS011;9122;48.406;9.984;2022-09-09T05:05:07;3.47;;;1.70;;
17993;SDS011;9122;48.406;9.984;2022-09-09T05:07:51;1.87;;;1.50;;
17993;SDS011;9122;48.406;9.984;2022-09-09T05:10:38;2.30;;;1.83;;
17993;SDS011;9122;48.406;9.984;2022-09-09T05:13:23;3.07;;;2.30;;
17993;SDS011;9122;48.406;9.984;2022-09-09T05:16:08;2.07;;;1.90;;
17993;SDS011;9122;48.406;9.984;2022-09-09T05:18:54;3.40;;;2.67;;
17993;SDS011;9122;48.406;9.984;2022-09-09T05:21:38;2.77;;;2.27;;
17993;SDS011;9122;48.406;9.984;2022-09-09T05:24:23;3.70;;;2.60;;
17993;SDS011;9122;48.406;9.984;2022-09-09T05:27:07;3.50;;;2.57;;
17993;SDS011;9122;48.406;9.984;2022-09-09T05:29:55;4.60;;;2.10;;
17993;SDS011;9122;48.406;9.984;2022-09-09T05:32:41;2.90;;;1.87;;
17993;SDS011;9122;48.406;9.984;2022-09-09T05:35:26;3.00;;;2.27;;
17993;SDS011;9122;48.406;9.984;2022-09-09T05:38:10;2.90;;;2.17;;
17993;SDS011;9122;48.406;9.984;2022-09-09T05:40:55;2.53;;;2.07;;
17993;SDS011;9122;48.406;9.984;2022-09-09T05:43:40;4.60;;;2.87;;
17993;SDS011;9122;48.406;9.984;2022-09-09T05:46:28;4.00;;;2.43;;
17993;SDS011;9122;48.406;9.984;2022-09-09T05:49:12;3.23;;;2.57;;
17993;SDS011;9122;48.406;9.984;2022-09-09T05:51:59;3.30;;;2.67;;
17993;SDS011;9122;48.406;9.984;2022-09-09T05:54:44;2.70;;;2.27;;
17993;SDS011;9122;48.406;9.984;2022-09-09T05:57:28;2.37;;;2.00;;
17993;SDS011;9122;48.406;9.984;2022-09-09T06:00:13;4.10;;;2.67;;
17993;SDS011;9122;48.406;9.984;2022-09-09T06:02:58;4.40;;;2.80;;
17993;SDS011;9122;48.406;9.984;2022-09-09T06:05:43;4.50;;;2.77;;
17993;SDS011;9122;48.406;9.984;2022-09-09T06:08:28;2.27;;;2.10;;
17993;SDS011;9122;48.406;9.984;2022-09-09T06:11:14;4.30;;;2.60;;
17993;SDS011;9122;48.406;9.984;2022-09-09T06:14:00;3.17;;;2.87;;
17993;SDS011;9122;48.406;9.984;2022-09-09T06:16:46;2.57;;;2.37;;
17993;SDS011;9122;48.406;9.984;2022-09-09T06:19:30;3.83;;;2.87;;
17993;SDS011;9122;48.406;9.984;2022-09-09T06:22:15;3.20;;;2.20;;
17993;SDS011;9122;48.406;9.984;2022-09-09T06:25:00;5.20;;;2.50;;
17993;SDS011;9122;48.406;9.984;2022-09-09T06:27:48;3.80;;;2.93;;
17993;SDS011;9122;48.406;9.984;2022-09-09T06:30:33;2.80;;;2.40;;
17993;SDS011;9122;48.406;9.984;2022-09-09T06:33:17;3.13;;;2.77;;
17993;SDS011;9122;48.406;9.984;2022-09-09T06:36:01;5.77;;;2.90;;
17993;SDS011;9122;48.406;9.984;2022-09-09T06:38:47;4.23;;;2.30;;
17993;SDS011;9122;48.406;9.984;2022-09-09T06:41:32;2.20;;;1.93;;
17993;SDS011;9122;48.406;9.984;2022-09-09T06:44:16;3.40;;;2.20;;
17993;SDS011;9122;48.406;9.984;2022-09-09T06:47:00;3.70;;;2.73;;
17993;SDS011;9122;48.406;9.984;2022-09-09T06:49:45;2.30;;;2.10;;
17993;SDS011;9122;48.406;9.984;2022-09-09T06:52:29;3.90;;;2.87;;
17993;SDS011;9122;48.406;9.984;2022-09-09T06:55:13;2.27;;;2.07;;
17993;SDS011;9122;48.406;9.984;2022-09-09T06:57:59;2.70;;;2.37;;
17993;SDS011;9122;48.406;9.984;2022-09-09T07:00:44;2.63;;;2.20;;
17993;SDS011;9122;48.406;9.984;2022-09-09T07:03:28;1.93;;;1.83;;
17993;SDS011;9122;48.406;9.984;2022-09-09T07:06:14;1.60;;;1.50;;
17993;SDS011;9122;48.406;9.984;2022-09-09T07:09:05;4.30;;;1.77;;
17993;SDS011;9122;48.406;9.984;2022-09-09T07:11:52;1.73;;;1.63;;
17993;SDS011;9122;48.406;9.984;2022-09-09T07:14:36;1.90;;;1.80;;
17993;SDS011;9122;48.406;9.984;2022-09-09T07:17:21;1.80;;;1.70;;
17993;SDS011;9122;48.406;9.984;2022-09-09T07:20:05;2.27;;;1.83;;
17993;SDS011;9122;48.406;9.984;2022-09-09T07:22:50;1.90;;;1.80;;
17993;SDS011;9122;48.406;9.984;2022-09-09T07:25:43;2.97;;;2.20;;
17993;SDS011;9122;48.406;9.984;2022-09-09T07:28:29;1.97;;;1.80;;
17993;SDS011;9122;48.406;9.984;2022-09-09T07:31:48;2.57;;;2.07;;
17993;SDS011;9122;48.406;9.984;2022-09-09T07:34:26;3.43;;;1.93;;
17993;SDS011;9122;48.406;9.984;2022-09-09T07:37:10;2.23;;;1.80;;
17993;SDS011;9122;48.406;9.984;2022-09-09T07:39:57;3.20;;;1.80;;
17993;SDS011;9122;48.406;9.984;2022-09-09T07:42:43;2.17;;;1.60;;
17993;SDS011;9122;48.406;9.984;2022-09-09T07:45:27;2.10;;;1.77;;
17993;SDS011;9122;48.406;9.984;2022-09-09T07:48:12;2.13;;;2.00;;
17993;SDS011;9122;48.406;9.984;2022-09-09T07:51:07;4.87;;;1.53;;
17993;SDS011;9122;48.406;9.984;2022-09-09T07:53:55;1.87;;;1.77;;
17993;SDS011;9122;48.406;9.984;2022-09-09T07:56:42;2.90;;;2.23;;
17993;SDS011;9122;48.406;9.984;2022-09-09T07:59:26;4.20;;;2.10;;
17993;SDS011;9122;48.406;9.984;2022-09-09T08:02:13;3.20;;;1.83;;
17993;SDS011;9122;48.406;9.984;2022-09-09T08:04:57;3.37;;;2.07;;
17993;SDS011;9122;48.406;9.984;2022-09-09T08:07:42;2.33;;;2.13;;
17993;SDS011;9122;48.406;9.984;2022-09-09T08:10:27;3.83;;;2.80;;
17993;SDS011;9122;48.406;9.984;2022-09-09T08:13:11;2.60;;;2.50;;
17993;SDS011;9122;48.406;9.984;2022-09-09T08:16:04;4.27;;;3.00;;
17993;SDS011;9122;48.406;9.984;2022-09-09T08:19:11;3.47;;;3.10;;
17993;SDS011;9122;48.406;9.984;2022-09-09T08:22:06;7.93;;;3.20;;
17993;SDS011;9122;48.406;9.984;2022-09-09T08:24:51;3.50;;;3.20;;
17993;SDS011;9122;48.406;9.984;2022-09-09T08:27:35;9.73;;;3.22;;
17993;SDS011;9122;48.406;9.984;2022-09-09T08:30:21;6.10;;;3.90;;
17993;SDS011;9122;48.406;9.984;2022-09-09T08:33:05;6.15;;;4.45;;
17993;SDS011;9122;48.406;9.984;2022-09-09T08:35:52;5.30;;;4.80;;
17993;SDS011;9122;48.406;9.984;2022-09-09T08:38:36;4.60;;;4.20;;
17993;SDS011;9122;48.406;9.984;2022-09-09T08:50:22;4.13;;;3.38;;
17993;SDS011;9122;48.406;9.984;2022-09-09T08:56:01;3.17;;;2.42;;
17993;SDS011;9122;48.406;9.984;2022-09-09T08:58:53;3.17;;;2.28;;
17993;SDS011;9122;48.406;9.984;2022-09-09T09:10:50;2.03;;;1.90;;
17993;SDS011;9122;48.406;9.984;2022-09-09T09:16:48;1.77;;;1.45;;
17993;SDS011;9122;48.406;9.984;2022-09-09T09:19:34;1.63;;;1.52;;
17993;SDS011;9122;48.406;9.984;2022-09-09T09:25:22;6.15;;;1.60;;
17993;SDS011;9122;48.406;9.984;2022-09-09T09:31:04;1.08;;;1.08;;
17993;SDS011;9122;48.406;9.984;2022-09-09T09:33:52;1.40;;;1.30;;
17993;SDS011;9122;48.406;9.984;2022-09-09T09:36:52;1.75;;;1.40;;
17993;SDS011;9122;48.406;9.984;2022-09-09T09:39:41;1.10;;;1.10;;
17993;SDS011;9122;48.406;9.984;2022-09-09T09:42:25;1.92;;;1.60;;
17993;SDS011;9122;48.406;9.984;2022-09-09T09:45:16;1.50;;;1.40;;
17993;SDS011;9122;48.406;9.984;2022-09-09T09:48:12;1.73;;;1.58;;
17993;SDS011;9122;48.406;9.984;2022-09-09T09:50:58;1.88;;;1.40;;
17993;SDS011;9122;48.406;9.984;2022-09-09T09:53:50;0.93;;;0.93;;
17993;SDS011;9122;48.406;9.984;2022-09-09T09:56:37;2.70;;;1.20;;
17993;SDS011;9122;48.406;9.984;2022-09-09T09:59:23;1.60;;;1.48;;
17993;SDS011;9122;48.406;9.984;2022-09-09T10:02:19;2.60;;;1.35;;
17993;SDS011;9122;48.406;9.984;2022-09-09T10:05:16;1.10;;;1.10;;
17993;SDS011;9122;48.406;9.984;2022-09-09T10:08:04;1.08;;;1.08;;
17993;SDS011;9122;48.406;9.984;2022-09-09T10:23:28;1.00;;;1.00;;
17993;SDS011;9122;48.406;9.984;2022-09-09T10:26:43;1.00;;;1.00;;
17993;SDS011;9122;48.406;9.984;2022-09-09T10:32:40;1.00;;;1.00;;
17993;SDS011;9122;48.406;9.984;2022-09-09T10:35:33;1.00;;;1.00;;
17993;SDS011;9122;48.406;9.984;2022-09-09T10:38:29;1.95;;;1.63;;
17993;SDS011;9122;48.406;9.984;2022-09-09T10:51:13;3.80;;;1.33;;
17993;SDS011;9122;48.406;9.984;2022-09-09T10:54:23;0.77;;;0.77;;
17993;SDS011;9122;48.406;9.984;2022-09-09T11:00:06;0.70;;;0.70;;
17993;SDS011;9122;48.406;9.984;2022-09-09T11:02:59;1.10;;;1.10;;
17993;SDS011;9122;48.406;9.984;2022-09-09T11:05:46;1.88;;;1.13;;
17993;SDS011;9122;48.406;9.984;2022-09-09T11:08:38;1.58;;;0.93;;
17993;SDS011;9122;48.406;9.984;2022-09-09T11:11:31;4.22;;;1.00;;
17993;SDS011;9122;48.406;9.984;2022-09-09T11:17:20;1.35;;;1.20;;
17993;SDS011;9122;48.406;9.984;2022-09-09T11:20:27;1.42;;;0.82;;
17993;SDS011;9122;48.406;9.984;2022-09-09T11:23:13;1.00;;;1.00;;
17993;SDS011;9122;48.406;9.984;2022-09-09T11:26:05;1.15;;;1.05;;
17993;SDS011;9122;48.406;9.984;2022-09-09T11:32:00;1.48;;;0.80;;
17993;SDS011;9122;48.406;9.984;2022-09-09T11:40:36;4.07;;;1.00;;
17993;SDS011;9122;48.406;9.984;2022-09-09T11:43:43;1.67;;;0.80;;
17993;SDS011;9122;48.406;9.984;2022-09-09T11:46:33;1.25;;;1.15;;
17993;SDS011;9122;48.406;9.984;2022-09-09T11:52:39;0.65;;;0.65;;
17993;SDS011;9122;48.406;9.984;2022-09-09T12:00:55;0.98;;;0.93;;
17993;SDS011;9122;48.406;9.984;2022-09-09T12:03:41;2.40;;;0.75;;
17993;SDS011;9122;48.406;9.984;2022-09-09T12:12:36;0.73;;;0.73;;
17993;SDS011;9122;48.406;9.984;2022-09-09T12:15:26;4.05;;;0.70;;
17993;SDS011;9122;48.406;9.984;2022-09-09T12:18:14;1.13;;;0.95;;
17993;SDS011;9122;48.406;9.984;2022-09-09T12:24:11;0.63;;;0.60;;
17993;SDS011;9122;48.406;9.984;2022-09-09T12:27:12;6.20;;;0.90;;
17993;SDS011;9122;48.406;9.984;2022-09-09T12:30:11;0.70;;;0.70;;
17993;SDS011;9122;48.406;9.984;2022-09-09T12:33:02;0.55;;;0.55;;
17993;SDS011;9122;48.406;9.984;2022-09-09T12:35:55;1.15;;;0.90;;
17993;SDS011;9122;48.406;9.984;2022-09-09T12:38:43;1.27;;;0.85;;
17993;SDS011;9122;48.406;9.984;2022-09-09T12:41:28;3.60;;;0.90;;
17993;SDS011;9122;48.406;9.984;2022-09-09T12:44:12;0.95;;;0.88;;
17993;SDS011;9122;48.406;9.984;2022-09-09T12:46:57;0.80;;;0.80;;
17993;SDS011;9122;48.406;9.984;2022-09-09T12:49:44;0.95;;;0.95;;
17993;SDS011;9122;48.406;9.984;2022-09-09T12:52:34;0.55;;;0.55;;
17993;SDS011;9122;48.406;9.984;2022-09-09T12:55:22;1.30;;;0.95;;
17993;SDS011;9122;48.406;9.984;2022-09-09T12:58:11;1.63;;;0.70;;
17993;SDS011;9122;48.406;9.984;2022-09-09T13:01:01;0.68;;;0.68;;
17993;SDS011;9122;48.406;9.984;2022-09-09T13:03:50;0.88;;;0.88;;
17993;SDS011;9122;48.406;9.984;2022-09-09T13:06:36;1.30;;;0.90;;
17993;SDS011;9122;48.406;9.984;2022-09-09T13:09:20;2.33;;;0.98;;
17993;SDS011;9122;48.406;9.984;2022-09-09T13:12:04;1.33;;;0.85;;
17993;SDS011;9122;48.406;9.984;2022-09-09T13:14:57;1.17;;;1.08;;
17993;SDS011;9122;48.406;9.984;2022-09-09T13:17:41;2.50;;;0.63;;
17993;SDS011;9122;48.406;9.984;2022-09-09T13:20:26;2.35;;;1.20;;
17993;SDS011;9122;48.406;9.984;2022-09-09T13:23:12;2.20;;;0.80;;
17993;SDS011;9122;48.406;9.984;2022-09-09T13:25:57;0.75;;;0.75;;
17993;SDS011;9122;48.406;9.984;2022-09-09T13:29:17;1.52;;;0.77;;
17993;SDS011;9122;48.406;9.984;2022-09-09T13:32:06;0.88;;;0.70;;
17993;SDS011;9122;48.406;9.984;2022-09-09T13:35:00;1.98;;;0.75;;
17993;SDS011;9122;48.406;9.984;2022-09-09T13:37:46;1.08;;;0.75;;
17993;SDS011;9122;48.406;9.984;2022-09-09T13:40:31;1.25;;;0.70;;
17993;SDS011;9122;48.406;9.984;2022-09-09T13:43:18;2.80;;;0.95;;
17993;SDS011;9122;48.406;9.984;2022-09-09T13:49:22;0.90;;;0.90;;
17993;SDS011;9122;48.406;9.984;2022-09-09T13:54:57;0.80;;;0.80;;
17993;SDS011;9122;48.406;9.984;2022-09-09T13:58:02;0.77;;;0.77;;
17993;SDS011;9122;48.406;9.984;2022-09-09T14:00:48;1.38;;;1.27;;
17993;SDS011;9122;48.406;9.984;2022-09-09T14:03:33;2.30;;;1.00;;
17993;SDS011;9122;48.406;9.984;2022-09-09T14:06:18;0.90;;;0.90;;
17993;SDS011;9122;48.406;9.984;2022-09-09T14:09:03;2.05;;;0.80;;
17993;SDS011;9122;48.406;9.984;2022-09-09T14:11:48;0.88;;;0.88;;
17993;SDS011;9122;48.406;9.984;2022-09-09T14:14:32;0.70;;;0.70;;
17993;SDS011;9122;48.406;9.984;2022-09-09T14:17:16;1.35;;;0.85;;
17993;SDS011;9122;48.406;9.984;2022-09-09T14:20:01;0.68;;;0.68;;
17993;SDS011;9122;48.406;9.984;2022-09-09T14:22:50;1.52;;;0.70;;
17993;SDS011;9122;48.406;9.984;2022-09-09T14:25:34;1.00;;;0.93;;
17993;SDS011;9122;48.406;9.984;2022-09-09T14:28:20;2.92;;;1.30;;
17993;SDS011;9122;48.406;9.984;2022-09-09T14:31:04;1.13;;;1.08;;
17993;SDS011;9122;48.406;9.984;2022-09-09T14:33:50;3.72;;;1.00;;
17993;SDS011;9122;48.406;9.984;2022-09-09T14:36:34;0.70;;;0.70;;
17993;SDS011;9122;48.406;9.984;2022-09-09T14:39:19;0.60;;;0.60;;
17993;SDS011;9122;48.406;9.984;2022-09-09T14:42:03;1.35;;;0.68;;
17993;SDS011;9122;48.406;9.984;2022-09-09T14:44:49;0.70;;;0.70;;
17993;SDS011;9122;48.406;9.984;2022-09-09T14:47:33;1.10;;;0.65;;
17993;SDS011;9122;48.406;9.984;2022-09-09T14:50:21;0.90;;;0.90;;
17993;SDS011;9122;48.406;9.984;2022-09-09T14:53:07;1.00;;;0.60;;
17993;SDS011;9122;48.406;9.984;2022-09-09T14:55:52;0.98;;;0.82;;
17993;SDS011;9122;48.406;9.984;2022-09-09T14:58:36;2.15;;;0.88;;
17993;SDS011;9122;48.406;9.984;2022-09-09T15:01:24;0.32;;;0.32;;
17993;SDS011;9122;48.406;9.984;2022-09-09T15:04:12;0.80;;;0.77;;
17993;SDS011;9122;48.406;9.984;2022-09-09T15:06:58;1.85;;;0.60;;
17993;SDS011;9122;48.406;9.984;2022-09-09T15:09:43;0.40;;;0.40;;
17993;SDS011;9122;48.406;9.984;2022-09-09T15:12:27;0.55;;;0.55;;
17993;SDS011;9122;48.406;9.984;2022-09-09T15:15:12;2.20;;;1.05;;
17993;SDS011;9122;48.406;9.984;2022-09-09T15:17:56;1.23;;;0.77;;
17993;SDS011;9122;48.406;9.984;2022-09-09T15:20:44;2.85;;;0.75;;
17993;SDS011;9122;48.406;9.984;2022-09-09T15:23:33;0.50;;;0.50;;
17993;SDS011;9122;48.406;9.984;2022-09-09T15:26:18;0.70;;;0.63;;
17993;SDS011;9122;48.406;9.984;2022-09-09T15:29:04;0.68;;;0.68;;
17993;SDS011;9122;48.406;9.984;2022-09-09T15:31:50;1.10;;;0.70;;
17993;SDS011;9122;48.406;9.984;2022-09-09T15:34:36;0.55;;;0.55;;
17993;SDS011;9122;48.406;9.984;2022-09-09T15:37:21;2.85;;;0.82;;
17993;SDS011;9122;48.406;9.984;2022-09-09T15:40:06;0.50;;;0.50;;
17993;SDS011;9122;48.406;9.984;2022-09-09T15:42:51;0.80;;;0.80;;
17993;SDS011;9122;48.406;9.984;2022-09-09T15:45:36;0.77;;;0.65;;
17993;SDS011;9122;48.406;9.984;2022-09-09T15:48:21;2.03;;;0.93;;
17993;SDS011;9122;48.406;9.984;2022-09-09T15:51:18;0.50;;;0.50;;
17993;SDS011;9122;48.406;9.984;2022-09-09T15:54:03;1.40;;;1.25;;
17993;SDS011;9122;48.406;9.984;2022-09-09T15:56:50;2.15;;;1.95;;
17993;SDS011;9122;48.406;9.984;2022-09-09T15:59:38;0.98;;;0.95;;
17993;SDS011;9122;48.406;9.984;2022-09-09T16:02:24;9.35;;;7.97;;
17993;SDS011;9122;48.406;9.984;2022-09-09T16:05:08;4.72;;;3.95;;
17993;SDS011;9122;48.406;9.984;2022-09-09T16:07:52;6.20;;;5.57;;
17993;SDS011;9122;48.406;9.984;2022-09-09T16:10:37;3.75;;;3.13;;
17993;SDS011;9122;48.406;9.984;2022-09-09T16:13:21;3.63;;;3.15;;
17993;SDS011;9122;48.406;9.984;2022-09-09T16:16:06;1.48;;;1.20;;
17993;SDS011;9122;48.406;9.984;2022-09-09T16:18:52;2.17;;;2.00;;
17993;SDS011;9122;48.406;9.984;2022-09-09T16:21:39;1.83;;;1.58;;
17993;SDS011;9122;48.406;9.984;2022-09-09T16:24:28;1.55;;;1.00;;
17993;SDS011;9122;48.406;9.984;2022-09-09T16:27:12;1.80;;;1.10;;
17993;SDS011;9122;48.406;9.984;2022-09-09T16:29:57;1.55;;;0.47;;
17993;SDS011;9122;48.406;9.984;2022-09-09T16:32:42;1.02;;;0.75;;
17993;SDS011;9122;48.406;9.984;2022-09-09T16:35:27;1.30;;;0.80;;
17993;SDS011;9122;48.406;9.984;2022-09-09T16:38:11;0.77;;;0.70;;
17993;SDS011;9122;48.406;9.984;2022-09-09T16:40:59;1.05;;;0.93;;
17993;SDS011;9122;48.406;9.984;2022-09-09T16:43:44;0.60;;;0.60;;
17993;SDS011;9122;48.406;9.984;2022-09-09T16:46:30;1.85;;;0.55;;
17993;SDS011;9122;48.406;9.984;2022-09-09T16:49:17;1.55;;;0.70;;
17993;SDS011;9122;48.406;9.984;2022-09-09T16:52:02;1.83;;;0.93;;
17993;SDS011;9122;48.406;9.984;2022-09-09T16:54:47;0.75;;;0.70;;
17993;SDS011;9122;48.406;9.984;2022-09-09T16:57:31;1.02;;;0.77;;
17993;SDS011;9122;48.406;9.984;2022-09-09T17:00:15;0.70;;;0.70;;
17993;SDS011;9122;48.406;9.984;2022-09-09T17:03:03;2.08;;;0.70;;
17993;SDS011;9122;48.406;9.984;2022-09-09T17:05:48;1.02;;;1.02;;
17993;SDS011;9122;48.406;9.984;2022-09-09T17:08:33;3.47;;;1.00;;
17993;SDS011;9122;48.406;9.984;2022-09-09T17:11:18;2.42;;;0.43;;
17993;SDS011;9122;48.406;9.984;2022-09-09T17:14:03;0.80;;;0.80;;
17993;SDS011;9122;48.406;9.984;2022-09-09T17:16:49;0.98;;;0.55;;
17993;SDS011;9122;48.406;9.984;2022-09-09T17:19:34;0.98;;;0.65;;
17993;SDS011;9122;48.406;9.984;2022-09-09T17:22:18;0.55;;;0.38;;
17993;SDS011;9122;48.406;9.984;2022-09-09T17:25:04;0.77;;;0.77;;
17993;SDS011;9122;48.406;9.984;2022-09-09T17:27:49;0.90;;;0.90;;
17993;SDS011;9122;48.406;9.984;2022-09-09T17:30:34;1.15;;;0.95;;
17993;SDS011;9122;48.406;9.984;2022-09-09T17:33:20;0.80;;;0.50;;
17993;SDS011;9122;48.406;9.984;2022-09-09T17:36:10;5.00;;;1.23;;
17993;SDS011;9122;48.406;9.984;2022-09-09T17:38:57;3.67;;;0.70;;
17993;SDS011;9122;48.406;9.984;2022-09-09T17:41:43;2.20;;;0.40;;
17993;SDS011;9122;48.406;9.984;2022-09-09T17:44:27;1.17;;;0.52;;
17993;SDS011;9122;48.406;9.984;2022-09-09T17:47:12;1.08;;;0.82;;
17993;SDS011;9122;48.406;9.984;2022-09-09T17:49:56;0.43;;;0.28;;
17993;SDS011;9122;48.406;9.984;2022-09-09T17:52:41;0.43;;;0.43;;
17993;SDS011;9122;48.406;9.984;2022-09-09T17:55:25;1.95;;;0.40;;
17993;SDS011;9122;48.406;9.984;2022-09-09T17:58:09;0.40;;;0.40;;
17993;SDS011;9122;48.406;9.984;2022-09-09T18:00:53;0.95;;;0.35;;
17993;SDS011;9122;48.406;9.984;2022-09-09T18:03:39;1.77;;;0.50;;
17993;SDS011;9122;48.406;9.984;2022-09-09T18:06:26;0.77;;;0.63;;
17993;SDS011;9122;48.406;9.984;2022-09-09T18:09:15;0.70;;;0.63;;
17993;SDS011;9122;48.406;9.984;2022-09-09T18:12:01;0.40;;;0.40;;
17993;SDS011;9122;48.406;9.984;2022-09-09T18:14:45;0.50;;;0.50;;
17993;SDS011;9122;48.406;9.984;2022-09-09T18:17:30;5.25;;;0.47;;
17993;SDS011;9122;48.406;9.984;2022-09-09T18:20:15;1.33;;;0.47;;
17993;SDS011;9122;48.406;9.984;2022-09-09T18:23:00;0.35;;;0.30;;
17993;SDS011;9122;48.406;9.984;2022-09-09T18:25:44;0.43;;;0.43;;
17993;SDS011;9122;48.406;9.984;2022-09-09T18:28:28;1.70;;;0.47;;
17993;SDS011;9122;48.406;9.984;2022-09-09T18:31:13;1.95;;;0.68;;
17993;SDS011;9122;48.406;9.984;2022-09-09T18:34:00;0.40;;;0.40;;
17993;SDS011;9122;48.406;9.984;2022-09-09T18:36:47;0.30;;;0.30;;
17993;SDS011;9122;48.406;9.984;2022-09-09T18:39:37;0.70;;;0.65;;
17993;SDS011;9122;48.406;9.984;2022-09-09T18:42:21;0.88;;;0.88;;
17993;SDS011;9122;48.406;9.984;2022-09-09T18:45:05;0.95;;;0.70;;
17993;SDS011;9122;48.406;9.984;2022-09-09T18:47:50;1.95;;;1.40;;
17993;SDS011;9122;48.406;9.984;2022-09-09T18:50:34;1.13;;;0.80;;
17993;SDS011;9122;48.406;9.984;2022-09-09T18:53:19;1.50;;;0.55;;
17993;SDS011;9122;48.406;9.984;2022-09-09T18:56:07;0.45;;;0.45;;
17993;SDS011;9122;48.406;9.984;2022-09-09T18:58:53;1.90;;;0.75;;
17993;SDS011;9122;48.406;9.984;2022-09-09T19:01:40;0.65;;;0.65;;
17993;SDS011;9122;48.406;9.984;2022-09-09T19:04:25;0.60;;;0.60;;
17993;SDS011;9122;48.406;9.984;2022-09-09T19:07:10;1.92;;;0.82;;